Terminal Aerodrome Forecast
Issued by NWS

Home | Current Version | Previous Version | Text Only | Print | Product List | Glossary On
Versions: 1 2 3 4 5 6 7 8 9 10 11 12 13 14 15 16 17 18 19 20
000
FTUS44 KLZK 222300
TAFHOT
TAF
KHOT 222334Z 2300/2324 VRB03KT P6SM SCT040
     FM230600 00000KT 4SM BR BKN250
     FM231400 27005KT P6SM SCT050 BKN150
     FM231700 01005KT 4SM BR VCTS BKN035CB
     FM232100 31005KT P6SM SCT030=

USA.gov is the U.S. government's official web portal to all federal, state and local government web resources and services.